Flight Track Log - Related Links

Times and Time Zones

All times are in EDT time to prevent confusion due to time zone crossing. See the AAL44 flight status page for this flight to view local times or setup timezone preferences in your user account.


Time Position Orientation Groundspeed Altitude Reporting Facility
EDT Latitude Longitude Course Direction KTS MPH feet Rate Location/Type
Wed 06:26:37 PM 40.6210 -73.7860 213° Southwest 172 198 400  Level FlightAware ADS-B
Wed 06:27:07 PM 40.6010 -73.8040 214° Southwest 177 204 1,800 2,073 Climbing FlightAware ADS-B
Wed 06:27:32 PM 40.5830 -73.8200 214° Southwest 220 253 2,300 1,650 Climbing FlightAware ADS-B
Wed 06:27:47 PM 40.5680 -73.8250 194° South 229 264 2,900 3,000 Climbing FlightAware ADS-B
Wed 06:28:02 PM 40.5520 -73.8160 157° South 239 275 3,800 3,310 Climbing FlightAware ADS-B
Wed 06:28:16 PM 40.5425 -73.7974 124° Southeast 257 296 4,500 3,462 Climbing FlightAware ADS-B
Wed 06:28:28 PM 40.5409 -73.7780 96° East 266 306 5,300 3,778 Climbing FlightAware ADS-B
Wed 06:28:43 PM 40.5452 -73.7540 77° East 266 306 6,200 3,484 Climbing FlightAware ADS-B
Wed 06:28:59 PM 40.5488 -73.7277 80° East 273 314 7,100 3,231 Climbing FlightAware ADS-B
Wed 06:29:09 PM 40.5493 -73.7112 88° East 272 313 7,600 3,462 Climbing FlightAware ADS-B
Wed 06:29:25 PM 40.5495 -73.6858 89° East 271 312 8,600 3,455 Climbing FlightAware ADS-B
Wed 06:29:42 PM 40.5497 -73.6575 89° East 280 322 9,500 2,830 Climbing FlightAware ADS-B
Wed 06:30:18 PM 40.5507 -73.5930 89° East 304 350 11,100 2,118 Climbing FlightAware ADS-B
Wed 06:30:50 PM 40.5512 -73.5304 89° East 344 396 11,900 1,839 Climbing FlightAware ADS-B
Wed 06:31:20 PM 40.5523 -73.4644 89° East 368 423 13,000 2,704 Climbing FlightAware ADS-B
Wed 06:32:01 PM 40.5531 -73.3724 89° East 379 436 15,100 3,040 Climbing FlightAware ADS-B
Wed 06:32:35 PM 40.5530 -73.2912 90° East 389 448 16,800 2,687 Climbing FlightAware ADS-B
Wed 06:33:08 PM 40.5533 -73.2139 90° East 405 466 18,100 2,476 Climbing FlightAware ADS-B
Wed 06:33:38 PM 40.5535 -73.1372 90° East 413 475 19,400 2,613 Climbing FlightAware ADS-B
Wed 06:34:10 PM 40.5540 -73.0567 90° East 421 484 20,800 2,464 Climbing FlightAware ADS-B
Wed 06:34:34 PM 40.5593 -72.9955 83° East 436 502 21,700 2,270 Climbing FlightAware ADS-B
Wed 06:34:47 PM 40.5660 -72.9626 75° East 442 509 22,200 1,472 Climbing FlightAware ADS-B
Wed 06:35:27 PM 40.5910 -72.8640 72° East 456 525 23,000 980 Climbing FlightAware ADS-B
Wed 06:35:36 PM 40.5984 -72.8333 72° East 456 525 23,000  Level FlightAware ADS-B
Wed 06:36:12 PM 40.6200 -72.7470 72° East 455 524 23,000  Level FlightAware ADS-B
Wed 06:36:52 PM 40.6480 -72.6400 71° East 463 533 23,000 1,341 Level FlightAware ADS-B
Wed 06:37:37 PM 40.6770 -72.5210 72° East 459 528 24,900 2,329 Climbing FlightAware ADS-B
Wed 06:38:17 PM 40.7040 -72.4140 72° East 465 535 26,300 2,000 Climbing FlightAware ADS-B
Wed 06:39:04 PM 40.7371 -72.2787 72° East 469 540 27,800 1,765 Climbing FlightAware ADS-B
Wed 06:39:42 PM 40.7610 -72.1810 72° East 474 545 28,800 1,615 Climbing FlightAware ADS-B
Wed 06:40:22 PM 40.7870 -72.0740 72° East 480 552 29,900 1,624 Climbing FlightAware ADS-B
Wed 06:41:07 PM 40.8160 -71.9550 72° East 484 557 31,100 2,118 Climbing FlightAware ADS-B
Wed 06:41:47 PM 40.8450 -71.8400 72° East 469 540 32,900 2,175 Climbing FlightAware ADS-B
Wed 06:42:27 PM 40.8720 -71.7250 73° East 468 539 34,000 1,701 Climbing FlightAware ADS-B
Wed 06:42:54 PM 40.8914 -71.6461 72° East 465 535 34,800 800 Climbing FlightAware ADS-B
Wed 06:43:42 PM 40.9220 -71.5176 72° East 465 535 35,000 135 Climbing FlightAware ADS-B
Wed 06:44:23 PM 40.9487 -71.4079 72° East 465 535 35,000  Level FlightAware ADS-B
Wed 06:45:32 PM 41.0200 -71.2540 58° Northeast 475 547 35,000  Level FlightAware ADS-B
Wed 06:46:27 PM 41.0970 -71.1320 50° Northeast 478 550 35,000  Level FlightAware ADS-B
Wed 06:47:07 PM 41.1560 -71.0380 50° Northeast 479 551 35,000  Level FlightAware ADS-B
Wed 06:47:52 PM 41.2210 -70.9370 49° Northeast 483 556 35,000  Level FlightAware ADS-B
Wed 06:48:32 PM 41.2780 -70.8460 50° Northeast 479 551 35,000  Level FlightAware ADS-B
Wed 06:49:07 PM 41.3270 -70.7680 50° Northeast 484 557 35,000  Level FlightAware ADS-B
Wed 06:49:57 PM 41.4000 -70.6510 50° Northeast 484 557 35,000  Level FlightAware ADS-B
Wed 06:50:32 PM 41.4470 -70.5770 50° Northeast 483 556 35,000  Level FlightAware ADS-B
Wed 06:51:12 PM 41.5050 -70.4840 50° Northeast 484 557 35,000  Level FlightAware ADS-B
Wed 06:52:17 PM 41.5920 -70.3450 50° Northeast 484 557 35,000  Level FlightAware ADS-B
Wed 06:52:52 PM 41.6440 -70.2590 51° Northeast 483 556 35,000  Level FlightAware ADS-B
Wed 06:53:42 PM 41.7220 -70.1300 51° Northeast 486 559 35,000  Level FlightAware ADS-B
Wed 06:54:32 PM 41.7870 -70.0230 51° Northeast 486 559 35,000  Level FlightAware ADS-B
Wed 06:55:17 PM 41.8550 -69.9100 51° Northeast 487 560 35,000  Level FlightAware ADS-B
Wed 06:56:02 PM 41.9140 -69.8130 51° Northeast 487 560 35,000  Level FlightAware ADS-B
Wed 06:56:37 PM 41.9670 -69.7250 51° Northeast 487 560 35,000  Level FlightAware ADS-B
Wed 06:57:22 PM 42.0250 -69.6280 51° Northeast 489 563 35,000  Level FlightAware ADS-B
Wed 06:58:07 PM 42.0960 -69.5090 51° Northeast 490 564 35,000  Level FlightAware ADS-B
Wed 06:58:47 PM 42.1530 -69.4140 51° Northeast 490 564 35,000  Level FlightAware ADS-B
Wed 06:59:32 PM 42.2150 -69.3090 51° Northeast 490 564 35,000  Level FlightAware ADS-B
Wed 07:00:17 PM 42.2800 -69.2000 51° Northeast 491 565 35,000  Level FlightAware ADS-B
Wed 07:00:57 PM 42.3340 -69.1080 52° Northeast 492 566 35,000  Level FlightAware ADS-B
Wed 07:01:42 PM 42.4000 -68.9950 52° Northeast 493 567 35,000  Level FlightAware ADS-B
Wed 07:02:37 PM 42.4750 -68.8690 51° Northeast 494 568 35,000  Level FlightAware ADS-B
Wed 07:03:17 PM 42.5350 -68.7660 52° Northeast 495 570 35,000  Level FlightAware ADS-B
Wed 07:03:42 PM 42.5680 -68.7100 51° Northeast 497 572 35,000  Level FlightAware ADS-B
Wed 07:04:27 PM 42.6280 -68.6090 51° Northeast 497 572 35,000  Level FlightAware ADS-B
Wed 07:05:17 PM 42.6890 -68.5060 51° Northeast 497 572 35,000  Level FlightAware ADS-B
Wed 07:05:57 PM 42.7380 -68.4230 51° Northeast 497 572 35,000  Level FlightAware ADS-B
Wed 07:06:37 PM 42.7880 -68.3400 51° Northeast 497 572 35,000  Level FlightAware ADS-B
Wed 07:07:17 PM 42.8370 -68.2570 51° Northeast 497 572 35,000  Level FlightAware ADS-B
Wed 07:08:12 PM 42.9530 -68.0430 53° Northeast 35,000  Level FlightAware ADS-B
Wed 07:09:02 PM 43.0260 -67.9150 52° Northeast 496 571 35,000  Level FlightAware ADS-B
Wed 07:09:37 PM 43.0770 -67.8270 52° Northeast 496 571 35,000  Level FlightAware ADS-B
Wed 07:10:22 PM 43.1400 -67.7140 53° Northeast 496 571 35,000  Level FlightAware ADS-B
Wed 07:11:07 PM 43.2030 -67.6040 52° Northeast 496 571 35,000  Level FlightAware ADS-B
Wed 07:11:47 PM 43.2600 -67.5020 52° Northeast 496 571 35,000  Level FlightAware ADS-B
Wed 07:12:32 PM 43.3220 -67.3920 52° Northeast 490 564 35,000  Level FlightAware ADS-B
Wed 07:13:12 PM 43.3790 -67.2910 52° Northeast 490 564 35,000  Level FlightAware ADS-B
Wed 07:13:57 PM 43.4400 -67.1810 53° Northeast 489 563 35,000  Level FlightAware ADS-B
Wed 07:14:37 PM 43.4960 -67.0800 53° Northeast 488 562 35,000  Level FlightAware ADS-B
Wed 07:15:17 PM 43.5530 -66.9800 52° Northeast 488 562 35,000  Level FlightAware ADS-B
Wed 07:16:02 PM 43.6210 -66.8710 49° Northeast 494 568 35,000  Level FlightAware ADS-B
Wed 07:16:42 PM 43.6810 -66.7740 49° Northeast 494 568 35,000  Level FlightAware ADS-B
Wed 07:17:22 PM 43.7410 -66.6800 49° Northeast 495 570 35,000  Level FlightAware ADS-B
Wed 07:18:07 PM 43.8070 -66.5740 49° Northeast 495 570 35,000  Level FlightAware ADS-B
Wed 07:18:47 PM 43.8690 -66.4760 49° Northeast 497 572 35,000  Level FlightAware ADS-B
Wed 07:19:32 PM 43.9350 -66.3690 49° Northeast 494 568 35,000  Level FlightAware ADS-B
Wed 07:20:12 PM 43.9960 -66.2720 49° Northeast 493 567 35,000  Level FlightAware ADS-B
Wed 07:20:52 PM 44.0550 -66.1770 49° Northeast 492 566 35,000  Level FlightAware ADS-B
Wed 07:21:27 PM 44.1070 -66.0920 50° Northeast 491 565 35,000  Level FlightAware ADS-B
Wed 07:22:17 PM 44.1750 -65.9820 49° Northeast 485 558 35,000  Level FlightAware ADS-B
Wed 07:22:57 PM 44.2380 -65.8790 49° Northeast 490 564 35,000  Level FlightAware ADS-B
Wed 07:23:42 PM 44.2990 -65.7780 50° Northeast 485 558 35,000  Level FlightAware ADS-B
Wed 07:24:22 PM 44.3570 -65.6830 49° Northeast 484 557 35,000  Level FlightAware ADS-B
Wed 07:25:02 PM 44.4220 -65.5760 50° Northeast 488 562 35,000  Level FlightAware ADS-B
Wed 07:25:47 PM 44.4890 -65.4660 49° Northeast 488 562 35,000  Level FlightAware ADS-B
Wed 07:26:32 PM 44.5550 -65.3570 50° Northeast 486 559 35,000  Level FlightAware ADS-B
Wed 07:27:12 PM 44.6110 -65.2620 50° Northeast 484 557 35,000  Level FlightAware ADS-B
Wed 07:27:57 PM 44.6780 -65.1500 50° Northeast 483 556 35,000  Level FlightAware ADS-B
Wed 07:28:37 PM 44.7340 -65.0550 50° Northeast 481 554 35,000  Level FlightAware ADS-B
Wed 07:29:17 PM 44.7910 -64.9600 50° Northeast 480 552 35,000  Level FlightAware ADS-B
Wed 07:30:02 PM 44.8540 -64.8540 50° Northeast 480 552 35,000  Level FlightAware ADS-B
Wed 07:30:42 PM 44.9090 -64.7590 51° Northeast 480 552 35,000  Level FlightAware ADS-B
Wed 07:31:22 PM 44.9650 -64.6630 50° Northeast 480 552 35,000  Level FlightAware ADS-B
Wed 07:32:07 PM 45.0290 -64.5530 51° Northeast 481 554 35,000  Level FlightAware ADS-B
Wed 07:32:47 PM 45.0860 -64.4560 50° Northeast 482 555 35,000  Level FlightAware ADS-B
Wed 07:33:32 PM 45.1490 -64.3460 51° Northeast 483 556 35,000  Level FlightAware ADS-B
Wed 07:34:12 PM 45.2060 -64.2480 50° Northeast 484 557 35,000  Level FlightAware ADS-B
Wed 07:34:52 PM 45.2620 -64.1500 51° Northeast 484 557 35,000  Level FlightAware ADS-B
Wed 07:35:37 PM 45.3260 -64.0380 51° Northeast 486 559 35,000  Level FlightAware ADS-B
Wed 07:36:12 PM 45.3700 -63.9610 51° Northeast 486 559 35,000  Level FlightAware ADS-B
Wed 07:36:52 PM 45.4220 -63.8680 51° Northeast 486 559 35,000  Level FlightAware ADS-B
Wed 07:37:37 PM 45.4950 -63.7400 51° Northeast 488 562 35,000  Level FlightAware ADS-B
Wed 07:38:22 PM 45.5520 -63.6390 51° Northeast 488 562 35,000  Level FlightAware ADS-B
Wed 07:39:17 PM 45.6270 -63.5040 52° Northeast 489 563 35,000  Level FlightAware ADS-B
Wed 07:39:57 PM 45.6760 -63.4190 50° Northeast 489 563 35,000  Level FlightAware ADS-B
Wed 07:40:37 PM 45.7240 -63.3330 51° Northeast 489 563 35,000  Level FlightAware ADS-B
Wed 07:41:27 PM 45.7850 -63.2260 51° Northeast 489 563 35,000  Level FlightAware ADS-B
Wed 07:42:07 PM 45.8730 -63.0600 53° Northeast 489 563 35,000  Level FlightAware ADS-B
Wed 07:42:52 PM 45.9300 -62.9550 52° Northeast 489 563 35,000  Level FlightAware ADS-B
Wed 07:43:32 PM 45.9770 -62.8670 52° Northeast 489 563 35,000  Level FlightAware ADS-B
Wed 07:44:17 PM 46.0530 -62.7290 52° Northeast 488 562 35,000  Level FlightAware ADS-B
Wed 07:44:57 PM 46.1110 -62.6220 52° Northeast 488 562 35,000  Level FlightAware ADS-B
Wed 07:45:37 PM 46.1660 -62.5200 52° Northeast 488 562 35,000  Level FlightAware ADS-B
Wed 07:46:22 PM 46.2290 -62.4010 53° Northeast 488 562 35,000  Level FlightAware ADS-B
Wed 07:47:02 PM 46.2850 -62.2970 52° Northeast 488 562 35,000  Level FlightAware ADS-B
Wed 07:47:47 PM 46.3440 -62.1840 53° Northeast 489 563 35,000  Level FlightAware ADS-B
Wed 07:48:27 PM 46.4000 -62.0780 53° Northeast 489 563 35,000  Level FlightAware ADS-B
Wed 07:49:07 PM 46.4540 -61.9750 53° Northeast 489 563 35,000  Level FlightAware ADS-B
Wed 07:49:52 PM 46.5180 -61.8530 53° Northeast 490 564 35,000  Level FlightAware ADS-B
Wed 07:50:32 PM 46.5700 -61.7530 53° Northeast 490 564 35,000  Level FlightAware ADS-B
Wed 07:51:17 PM 46.6330 -61.6320 53° Northeast 490 564 35,000  Level FlightAware ADS-B
Wed 07:51:57 PM 46.6880 -61.5260 53° Northeast 490 564 35,000  Level FlightAware ADS-B
Wed 07:52:37 PM 46.7420 -61.4210 53° Northeast 491 565 35,000  Level FlightAware ADS-B
Wed 07:53:12 PM 46.7880 -61.3310 53° Northeast 491 565 35,000  Level FlightAware ADS-B
Wed 07:54:02 PM 46.8560 -61.1960 54° Northeast 492 566 35,000  Level FlightAware ADS-B
Wed 07:54:42 PM 46.9100 -61.0910 53° Northeast 492 566 35,000  Level FlightAware ADS-B
Wed 07:55:27 PM 46.9730 -60.9660 54° Northeast 492 566 35,000  Level FlightAware ADS-B
Wed 07:56:07 PM 47.0250 -60.8620 54° Northeast 492 566 35,000  Level FlightAware ADS-B
Wed 07:56:47 PM 47.0780 -60.7560 54° Northeast 492 566 35,000  Level FlightAware ADS-B
Wed 07:57:22 PM 47.1240 -60.6650 53° Northeast 493 567 35,000  Level FlightAware ADS-B
Wed 07:58:12 PM 47.1930 -60.5260 54° Northeast 493 567 35,000  Level FlightAware ADS-B
Wed 07:58:57 PM 47.2520 -60.4070 54° Northeast 493 567 35,000  Level FlightAware ADS-B
Wed 07:59:37 PM 47.3070 -60.2930 55° Northeast 493 567 35,000  Level FlightAware ADS-B
Wed 08:00:17 PM 47.3590 -60.1880 54° Northeast 493 567 35,000  Level FlightAware ADS-B
Wed 08:01:02 PM 47.4190 -60.0660 54° Northeast 493 567 35,000  Level FlightAware ADS-B
Wed 08:01:42 PM 47.4710 -59.9580 55° Northeast 493 567 35,000  Level FlightAware ADS-B
Wed 08:02:22 PM 47.5170 -59.8650 54° Northeast 493 567 35,000  Level FlightAware ADS-B
Wed 08:03:02 PM 47.5630 -59.7720 54° Northeast 493 567 35,000  Level FlightAware ADS-B
Wed 08:03:52 PM 47.6190 -59.6560 54° Northeast 493 567 35,000  Level FlightAware ADS-B
Wed 08:04:27 PM 47.6830 -59.5190 55° Northeast 490 564 35,000  Level FlightAware ADS-B
Wed 08:05:12 PM 47.7450 -59.3850 55° Northeast 35,000  Level FlightAware ADS-B
Wed 08:05:57 PM 47.7980 -59.2760 54° Northeast 489 563 35,000  Level FlightAware ADS-B
Wed 08:06:52 PM 47.8750 -59.1100 55° Northeast 487 560 35,000  Level FlightAware ADS-B
Wed 08:07:32 PM 47.9270 -59.0000 55° Northeast 487 560 35,000  Level FlightAware ADS-B
Wed 08:08:17 PM 47.9800 -58.8860 55° Northeast 487 560 35,000  Level FlightAware ADS-B
Wed 08:08:57 PM 48.0360 -58.7650 55° Northeast 488 562 35,000  Level FlightAware ADS-B
Wed 08:09:42 PM 48.0930 -58.6410 55° Northeast 488 562 35,000  Level FlightAware ADS-B
Wed 08:10:22 PM 48.1440 -58.5310 55° Northeast 488 562 35,000  Level FlightAware ADS-B
Wed 08:11:07 PM 48.2020 -58.4060 55° Northeast 486 559 35,000  Level FlightAware ADS-B
Wed 08:11:47 PM 48.2530 -58.2930 56° Northeast 486 559 35,000  Level FlightAware ADS-B
Wed 08:12:27 PM 48.3030 -58.1830 56° Northeast 486 559 35,000  Level FlightAware ADS-B
Wed 08:13:07 PM 48.3520 -58.0770 55° Northeast 486 559 35,000  Level FlightAware ADS-B
Wed 08:13:52 PM 48.4080 -57.9510 56° Northeast 486 559 35,000  Level FlightAware ADS-B
Wed 08:14:32 PM 48.4610 -57.8340 56° Northeast 487 560 35,000  Level FlightAware ADS-B
Wed 08:15:17 PM 48.5180 -57.7060 56° Northeast 487 560 35,000  Level FlightAware ADS-B
Wed 08:15:57 PM 48.5670 -57.5960 56° Northeast 488 562 35,000  Level FlightAware ADS-B
Wed 08:16:42 PM 48.6220 -57.4610 58° Northeast 490 564 35,000  Level FlightAware ADS-B
Wed 08:17:22 PM 48.6640 -57.3460 61° Northeast 491 565 35,000  Level FlightAware ADS-B
Wed 08:18:02 PM 48.7090 -57.2220 61° Northeast 491 565 35,000  Level FlightAware ADS-B
Wed 08:18:47 PM 48.7570 -57.0850 62° Northeast 490 564 35,000  Level FlightAware ADS-B
Wed 08:19:27 PM 48.7990 -56.9650 62° Northeast 489 563 35,000  Level FlightAware ADS-B
Wed 08:20:07 PM 48.8410 -56.8430 62° Northeast 488 562 35,000  Level FlightAware ADS-B
Wed 08:20:52 PM 48.8890 -56.7070 62° Northeast 488 562 35,000  Level FlightAware ADS-B
Wed 08:21:32 PM 48.9310 -56.5880 62° Northeast 488 562 35,000  Level FlightAware ADS-B
Wed 08:22:17 PM 48.9790 -56.4490 62° Northeast 487 560 35,000  Level FlightAware ADS-B
Wed 08:22:57 PM 49.0210 -56.3290 62° Northeast 488 562 35,000  Level FlightAware ADS-B
Wed 08:23:42 PM 49.0680 -56.1920 62° Northeast 488 562 35,000  Level FlightAware ADS-B
Wed 08:24:22 PM 49.1100 -56.0700 62° Northeast 489 563 35,000  Level FlightAware ADS-B
Wed 08:25:02 PM 49.1520 -55.9470 62° Northeast 489 563 35,000  Level FlightAware ADS-B
Wed 08:25:47 PM 49.1990 -55.8090 62° Northeast 489 563 35,000  Level FlightAware ADS-B
Wed 08:26:27 PM 49.2390 -55.6900 63° Northeast 489 563 35,000 282 Level FlightAware ADS-B
Wed 08:27:12 PM 49.2870 -55.5490 62° Northeast 487 560 35,400 706 Climbing FlightAware ADS-B
Wed 08:27:52 PM 49.3280 -55.4270 63° Northeast 487 560 36,000 450 Climbing FlightAware ADS-B
Wed 08:28:32 PM 49.3690 -55.3040 63° Northeast 488 562 36,000  Level FlightAware ADS-B
Wed 08:29:17 PM 49.4150 -55.1640 63° Northeast 486 559 36,000  Level FlightAware ADS-B
Wed 08:29:57 PM 49.4560 -55.0420 63° Northeast 485 558 36,000  Level FlightAware ADS-B
Wed 08:30:37 PM 49.4960 -54.9210 63° Northeast 484 557 36,000  Level FlightAware ADS-B
Wed 08:31:22 PM 49.5420 -54.7810 63° Northeast 486 559 36,000  Level FlightAware ADS-B
Wed 08:32:02 PM 49.5820 -54.6590 63° Northeast 487 560 36,000  Level FlightAware ADS-B
Wed 08:32:47 PM 49.6280 -54.5180 63° Northeast 487 560 36,000  Level FlightAware ADS-B
Wed 08:33:27 PM 49.6680 -54.3940 63° Northeast 489 563 36,000  Level FlightAware ADS-B
Wed 08:34:12 PM 49.7120 -54.2560 64° Northeast 488 562 36,000  Level FlightAware ADS-B
Wed 08:34:52 PM 49.7530 -54.1280 64° Northeast 489 563 36,000  Level FlightAware ADS-B
Wed 08:35:32 PM 49.7920 -54.0090 63° Northeast 489 563 36,000  Level FlightAware ADS-B
Wed 08:36:17 PM 49.8380 -53.8640 64° Northeast 489 563 36,000  Level FlightAware ADS-B
Wed 08:36:57 PM 49.8780 -53.7370 64° Northeast 489 563 36,000  Level FlightAware ADS-B
Wed 08:37:37 PM 49.9170 -53.6130 64° Northeast 489 563 36,000  Level FlightAware ADS-B
Wed 08:38:17 PM 49.9570 -53.4870 64° Northeast 487 560 36,000  Level FlightAware ADS-B
Wed 08:38:57 PM 49.9960 -53.3600 64° Northeast 487 560 36,000  Level FlightAware ADS-B
Wed 08:39:37 PM 50.0360 -53.2340 64° Northeast 487 560 36,000  Level FlightAware ADS-B
Wed 08:40:22 PM 50.0790 -53.0920 65° Northeast 485 558 36,000  Level FlightAware ADS-B
Wed 08:41:02 PM 50.1180 -52.9670 64° Northeast 484 557 36,000  Level FlightAware ADS-B
Wed 08:41:57 PM 50.1690 -52.7990 65° Northeast 484 557 36,000  Level FlightAware ADS-B
Wed 08:42:42 PM 50.2130 -52.6560 64° Northeast 483 556 36,000  Level FlightAware ADS-B
Wed 08:43:22 PM 50.2500 -52.5330 65° Northeast 483 556 36,000  Level FlightAware ADS-B
Wed 08:44:02 PM 50.2870 -52.4140 64° Northeast 483 556 36,000  Level FlightAware ADS-B
Wed 08:45:02 PM 50.3440 -52.2220 65° Northeast 482 555 36,000  Level FlightAware ADS-B
Wed 08:45:42 PM 50.3840 -52.0840 66° East 36,000  Level FlightAware ADS-B
Wed 08:46:22 PM 50.4170 -51.9730 65° Northeast 479 551 36,000  Level FlightAware ADS-B
Wed 08:47:07 PM 50.4560 -51.8420 65° Northeast 479 551 36,000  Level FlightAware ADS-B
Wed 08:47:47 PM 50.4880 -51.7350 65° Northeast 479 551 36,000  Level FlightAware ADS-B
Wed 08:48:27 PM 50.5200 -51.6270 65° Northeast 479 551 36,000  Level FlightAware ADS-B
Wed 08:49:07 PM 50.5520 -51.5200 65° Northeast 479 551 36,000  Level FlightAware ADS-B
Wed 08:49:47 PM 50.5830 -51.4120 66° East 479 551 36,000  Level FlightAware ADS-B
Wed 08:50:37 PM 50.6230 -51.2780 65° Northeast 479 551 36,000  Level FlightAware ADS-B
Wed 08:51:17 PM 50.6550 -51.1700 65° Northeast 479 551 36,000  Level FlightAware ADS-B
Wed 08:51:57 PM 50.6870 -51.0620 65° Northeast 479 551 36,000  Level FlightAware ADS-B
Wed 08:52:37 PM 50.7190 -50.9550 65° Northeast 479 551 36,000  Level FlightAware ADS-B
Wed 08:53:17 PM 50.7500 -50.8470 66° East 479 551 36,000  Level FlightAware ADS-B
Wed 08:54:07 PM 50.7900 -50.7120 65° Northeast 479 551 36,000  Level FlightAware ADS-B
Wed 08:54:47 PM 50.8220 -50.6040 65° Northeast 479 551 36,000  Level FlightAware ADS-B
Wed 08:55:27 PM 50.8540 -50.4960 65° Northeast 479 551 36,000  Level FlightAware ADS-B
Wed 08:56:07 PM 50.8860 -50.3870 65° Northeast 479 551 36,000  Level FlightAware ADS-B
Wed 08:56:26 PM 50.9667 -49.9667 65° Northeast 480 552 36,000  Level Gander Center
Wed 08:57:26 PM 51.0167 -49.8000 64° Northeast 480 552 36,000  Level Gander Center
Wed 08:58:13 PM 51.0333 -49.6000 82° East 490 564 36,000  Level Gander Center
Wed 08:59:13 PM 51.0500 -49.4167 82° East 490 564 36,000  Level Gander Center
Wed 09:00:13 PM 51.0833 -49.1833 77° East 490 564 36,000  Level Gander Center
Wed 09:03:00 PM 51.1371 -48.8215 77° East  Level FlightAware Approximate
Wed 09:10:00 PM 51.3374 -47.3935 77° East  Level FlightAware Approximate
Wed 09:11:00 PM 51.3646 -47.1885 78° East  Level FlightAware Approximate
Wed 09:12:00 PM 51.3914 -46.9832 78° East  Level FlightAware Approximate
Wed 09:13:00 PM 51.4160 -46.7772 80° East  Level FlightAware Approximate
Wed 09:14:00 PM 51.4393 -46.5706 80° East  Level FlightAware Approximate
Wed 09:15:00 PM 51.4623 -46.3638 80° East  Level FlightAware Approximate
Wed 09:16:00 PM 51.4849 -46.1568 80° East  Level FlightAware Approximate
Wed 09:17:00 PM 51.5071 -45.9496 80° East  Level FlightAware Approximate
Wed 09:18:00 PM 51.5290 -45.7422 80° East  Level FlightAware Approximate
Wed 09:19:00 PM 51.5505 -45.5347 80° East  Level FlightAware Approximate
Wed 09:20:00 PM 51.5716 -45.3269 81° East  Level FlightAware Approximate
Wed 09:21:00 PM 51.5924 -45.1189 81° East  Level FlightAware Approximate
Wed 09:22:00 PM 51.6128 -44.9108 81° East  Level FlightAware Approximate
Wed 09:23:00 PM 51.6329 -44.7024 81° East  Level FlightAware Approximate
Wed 09:24:00 PM 51.6525 -44.4939 81° East  Level FlightAware Approximate
Wed 09:25:00 PM 51.6718 -44.2852 81° East  Level FlightAware Approximate
Wed 09:26:00 PM 51.6908 -44.0763 82° East  Level FlightAware Approximate
Wed 09:27:00 PM 51.7093 -43.8672 82° East  Level FlightAware Approximate
Wed 09:28:00 PM 51.7281 -43.6581 82° East  Level FlightAware Approximate
Wed 09:29:00 PM 51.7468 -43.4489 82° East  Level FlightAware Approximate
Wed 09:30:00 PM 51.7651 -43.2396 82° East  Level FlightAware Approximate
Wed 09:31:00 PM 51.7831 -43.0300 82° East  Level FlightAware Approximate
Wed 09:32:00 PM 51.8007 -42.8203 82° East  Level FlightAware Approximate
Wed 09:33:00 PM 51.8179 -42.6105 82° East  Level FlightAware Approximate
Wed 09:34:00 PM 51.8347 -42.4005 83° East  Level FlightAware Approximate
Wed 09:35:00 PM 51.8512 -42.1903 83° East  Level FlightAware Approximate
Wed 09:36:00 PM 51.8673 -41.9799 83° East  Level FlightAware Approximate
Wed 09:37:00 PM 51.8830 -41.7695 83° East  Level FlightAware Approximate
Wed 09:38:00 PM 51.8984 -41.5588 83° East  Level FlightAware Approximate
Wed 09:39:00 PM 51.9133 -41.3481 83° East  Level FlightAware Approximate
Wed 09:40:00 PM 51.9280 -41.1372 84° East  Level FlightAware Approximate
Wed 09:41:00 PM 51.9422 -40.9261 84° East  Level FlightAware Approximate
Wed 09:42:00 PM 51.9560 -40.7150 84° East  Level FlightAware Approximate
Wed 09:43:00 PM 51.9695 -40.5037 84° East  Level FlightAware Approximate
Wed 09:44:00 PM 51.9826 -40.2922 84° East  Level FlightAware Approximate
Wed 09:45:00 PM 51.9953 -40.0796 84° East  Level FlightAware Approximate
Wed 09:46:00 PM 52.0052 -39.8666 86° East  Level FlightAware Approximate
Wed 09:47:00 PM 52.0133 -39.6533 86° East  Level FlightAware Approximate
Wed 09:48:00 PM 52.0210 -39.4399 87° East  Level FlightAware Approximate
Wed 09:49:00 PM 52.0283 -39.2264 87° East  Level FlightAware Approximate
Wed 09:50:00 PM 52.0352 -39.0129 87° East  Level FlightAware Approximate
Wed 09:50:05 PM 52.0000 -40.0000 86° East 515 593 36,000  Level ETMS Enhanced Traffic Management System
Wed 09:51:00 PM 52.0418 -38.7993 87° East  Level FlightAware Approximate
Wed 09:52:00 PM 52.0479 -38.5857 87° East  Level FlightAware Approximate
Wed 09:53:00 PM 52.0537 -38.3719 87° East  Level FlightAware Approximate
Wed 09:54:00 PM 52.0591 -38.1582 88° East  Level FlightAware Approximate
Wed 09:55:00 PM 52.0640 -37.9444 88° East  Level FlightAware Approximate
Wed 09:56:00 PM 52.0894 -36.9794 88° East 515 593 36,000  Level FlightAware Transoceanic
Wed 09:57:00 PM 52.0930 -36.7466 89° East 515 593 36,000  Level FlightAware Transoceanic
Wed 09:58:00 PM 52.0962 -36.5138 89° East 515 593 36,000  Level FlightAware Transoceanic
Wed 09:59:00 PM 52.0990 -36.2810 89° East 515 593 36,000  Level FlightAware Transoceanic
Wed 10:00:00 PM 52.1013 -36.0481 89° East 515 593 36,000  Level FlightAware Transoceanic
Wed 10:01:00 PM 52.1031 -35.8152 89° East 515 593 36,000  Level FlightAware Transoceanic
Wed 10:02:00 PM 52.1045 -35.5823 90° East 515 593 36,000  Level FlightAware Transoceanic
Wed 10:03:00 PM 52.1054 -35.3494 90° East 515 593 36,000  Level FlightAware Transoceanic
Wed 10:04:00 PM 52.1059 -35.1165 90° East 515 593 36,000  Level FlightAware Transoceanic
Wed 10:05:00 PM 52.1059 -34.8835 90° East 515 593 36,000  Level FlightAware Transoceanic
Wed 10:06:00 PM 52.1054 -34.6506 90° East 515 593 36,000  Level FlightAware Transoceanic
Wed 10:07:00 PM 52.1045 -34.4177 90° East 515 593 36,000  Level FlightAware Transoceanic
Wed 10:08:00 PM 52.1031 -34.1848 91° East 515 593 36,000  Level FlightAware Transoceanic
Wed 10:09:00 PM 52.1013 -33.9519 91° East 515 593 36,000  Level FlightAware Transoceanic
Wed 10:10:00 PM 52.0990 -33.7190 91° East 515 593 36,000  Level FlightAware Transoceanic
Wed 10:11:00 PM 52.0962 -33.4862 91° East 515 593 36,000  Level FlightAware Transoceanic
Wed 10:12:00 PM 52.0930 -33.2534 91° East 515 593 36,000  Level FlightAware Transoceanic
Wed 10:13:00 PM 52.0894 -33.0206 92° East 515 593 36,000  Level FlightAware Transoceanic
Wed 10:14:00 PM 52.0852 -32.7879 92° East 515 593 36,000  Level FlightAware Transoceanic
Wed 10:15:00 PM 52.0806 -32.5552 92° East 515 593 36,000  Level FlightAware Transoceanic
Wed 10:16:00 PM 52.0756 -32.3226 92° East 515 593 36,000  Level FlightAware Transoceanic
Wed 10:17:00 PM 52.0701 -32.0900 92° East 515 593 36,000  Level FlightAware Transoceanic
Wed 10:18:00 PM 52.0641 -31.8575 92° East 515 593 36,000  Level FlightAware Transoceanic
Wed 10:19:00 PM 52.0577 -31.6250 93° East 515 593 36,000  Level FlightAware Transoceanic
Wed 10:20:00 PM 52.0508 -31.3926 93° East 515 593 36,000  Level FlightAware Transoceanic
Wed 10:21:00 PM 52.0435 -31.1603 93° East 515 593 36,000  Level FlightAware Transoceanic
Wed 10:22:00 PM 52.0357 -30.9281 93° East 515 593 36,000  Level FlightAware Transoceanic
Wed 10:23:00 PM 52.0275 -30.6959 93° East 515 593 36,000  Level FlightAware Transoceanic
Wed 10:24:00 PM 52.0188 -30.4639 94° East 515 593 36,000  Level FlightAware Transoceanic
Wed 10:25:00 PM 52.0096 -30.2319 94° East 515 593 36,000 11 Level FlightAware Transoceanic
Wed 10:26:00 PM 52.0008 -30.0187 94° East  Level FlightAware Approximate
Wed 10:27:00 PM 51.9916 -29.8055 94° East  Level FlightAware Approximate
Wed 10:28:00 PM 51.9891 -29.8236 96° East  Level FlightAware Approximate
Wed 10:29:00 PM 51.9756 -29.6100 96° East  Level FlightAware Approximate
Wed 10:30:00 PM 51.9617 -29.3966 96° East  Level FlightAware Approximate
Wed 10:31:00 PM 51.9474 -29.1834 96° East  Level FlightAware Approximate
Wed 10:32:00 PM 51.9328 -28.9702 96° East  Level FlightAware Approximate
Wed 10:33:00 PM 51.9177 -28.7573 96° East  Level FlightAware Approximate
Wed 10:34:00 PM 51.9023 -28.5444 97° East  Level FlightAware Approximate
Wed 10:35:00 PM 51.8865 -28.3317 97° East  Level FlightAware Approximate
Wed 10:36:00 PM 51.8703 -28.1192 97° East  Level FlightAware Approximate
Wed 10:37:00 PM 51.8537 -27.9068 97° East  Level FlightAware Approximate
Wed 10:38:00 PM 51.8367 -27.6946 97° East  Level FlightAware Approximate
Wed 10:39:00 PM 51.8194 -27.4825 97° East  Level FlightAware Approximate
Wed 10:40:00 PM 51.8031 -27.2703 97° East  Level FlightAware Approximate
Wed 10:41:00 PM 51.7868 -27.0582 97° East  Level FlightAware Approximate
Wed 10:42:00 PM 51.7701 -26.8462 97° East  Level FlightAware Approximate
Wed 10:43:00 PM 51.7530 -26.6344 97° East  Level FlightAware Approximate
Wed 10:44:00 PM 51.7355 -26.4228 98° East  Level FlightAware Approximate
Wed 10:45:00 PM 51.7176 -26.2113 98° East  Level FlightAware Approximate
Wed 10:46:00 PM 51.6992 -26.0000 98° East  Level FlightAware Approximate
Wed 10:47:00 PM 51.6804 -25.7889 98° East  Level FlightAware Approximate
Wed 10:48:00 PM 51.6612 -25.5780 98° East  Level FlightAware Approximate
Wed 10:49:00 PM 51.6416 -25.3673 98° East  Level FlightAware Approximate
Wed 10:50:00 PM 51.6216 -25.1567 99° East  Level FlightAware Approximate
Wed 10:51:00 PM 51.6013 -24.9464 99° East  Level FlightAware Approximate
Wed 10:52:00 PM 51.5803 -24.7363 99° East  Level FlightAware Approximate
Wed 10:53:00 PM 51.5589 -24.5264 99° East  Level FlightAware Approximate
Wed 10:54:00 PM 51.5371 -24.3167 99° East  Level FlightAware Approximate
Wed 10:55:00 PM 51.5150 -24.1072 100° East  Level FlightAware Approximate
Wed 10:56:00 PM 51.4925 -23.8979 100° East  Level FlightAware Approximate
Wed 10:57:00 PM 51.4696 -23.6888 100° East  Level FlightAware Approximate
Wed 10:58:00 PM 51.4463 -23.4800 100° East  Level FlightAware Approximate
Wed 10:59:00 PM 51.4227 -23.2713 100° East  Level FlightAware Approximate
Wed 11:00:00 PM 51.3987 -23.0629 100° East  Level FlightAware Approximate
Wed 11:01:00 PM 51.3743 -22.8547 101° East  Level FlightAware Approximate
Wed 11:02:00 PM 51.3496 -22.6467 101° East  Level FlightAware Approximate
Wed 11:03:00 PM 51.3245 -22.4389 101° East  Level FlightAware Approximate
Wed 11:04:00 PM 51.2990 -22.2313 101° East  Level FlightAware Approximate
Wed 11:05:00 PM 51.2732 -22.0240 101° East  Level FlightAware Approximate
Wed 11:06:00 PM 51.2470 -21.8170 101° East  Level FlightAware Approximate
Wed 11:07:00 PM 51.2204 -21.6101 102° East  Level FlightAware Approximate
Wed 11:08:00 PM 51.1935 -21.4035 102° East  Level FlightAware Approximate
Wed 11:09:00 PM 51.1662 -21.1972 102° East  Level FlightAware Approximate
Wed 11:10:00 PM 51.1385 -20.9911 102° East  Level FlightAware Approximate
Wed 11:11:00 PM 51.1105 -20.7852 102° East  Level FlightAware Approximate
Wed 11:12:00 PM 51.0821 -20.5796 102° East  Level FlightAware Approximate
Wed 11:13:00 PM 51.0534 -20.3743 102° East  Level FlightAware Approximate
Wed 11:14:00 PM 51.0243 -20.1692 103° East  Level FlightAware Approximate
Wed 11:15:00 PM 50.9988 -19.9635 93° East  Level FlightAware Approximate
Wed 11:16:00 PM 50.9919 -19.7537 93° East  Level FlightAware Approximate
Wed 11:17:00 PM 50.9846 -19.5440 93° East  Level FlightAware Approximate
Wed 11:18:00 PM 50.9770 -19.3344 93° East  Level FlightAware Approximate
Wed 11:19:00 PM 50.9689 -19.1248 93° East  Level FlightAware Approximate
Wed 11:20:00 PM 50.9605 -18.9153 94° East  Level FlightAware Approximate
Wed 11:21:00 PM 50.9517 -18.7059 94° East  Level FlightAware Approximate
Wed 11:22:00 PM 50.9426 -18.4965 94° East  Level FlightAware Approximate
Wed 11:23:00 PM 50.9330 -18.2873 94° East  Level FlightAware Approximate
Wed 11:24:00 PM 50.9231 -18.0781 94° East  Level FlightAware Approximate
Wed 11:25:00 PM 50.9128 -17.8691 94° East  Level FlightAware Approximate
Wed 11:26:00 PM 50.9022 -17.6601 95° East  Level FlightAware Approximate
Wed 11:27:00 PM 50.8912 -17.4512 95° East  Level FlightAware Approximate
Wed 11:28:00 PM 50.8797 -17.2424 95° East  Level FlightAware Approximate
Wed 11:29:00 PM 50.8680 -17.0338 95° East  Level FlightAware Approximate
Wed 11:30:00 PM 50.8558 -16.8252 95° East  Level FlightAware Approximate
Wed 11:31:00 PM 50.8433 -16.6167 95° East  Level FlightAware Approximate
Wed 11:32:00 PM 50.8304 -16.4084 96° East  Level FlightAware Approximate
Wed 11:33:00 PM 50.8172 -16.2002 96° East  Level FlightAware Approximate
Wed 11:34:00 PM 50.8035 -15.9921 96° East  Level FlightAware Approximate
Wed 11:35:00 PM 50.7895 -15.7841 96° East  Level FlightAware Approximate
Wed 11:36:00 PM 50.7752 -15.5762 96° East  Level FlightAware Approximate
Wed 11:37:00 PM 50.7604 -15.3685 96° East  Level FlightAware Approximate
Wed 11:38:00 PM 50.7453 -15.1609 96° East  Level FlightAware Approximate
Wed 11:39:00 PM 50.7297 -14.9535 97° East  Level FlightAware Approximate
Wed 11:40:00 PM 50.7134 -14.7462 97° East  Level FlightAware Approximate
Wed 11:41:00 PM 50.6967 -14.5392 97° East  Level FlightAware Approximate
Wed 11:42:00 PM 50.6796 -14.3322 97° East  Level FlightAware Approximate
Wed 11:43:00 PM 50.6622 -14.1254 97° East  Level FlightAware Approximate
Wed 11:44:00 PM 50.6444 -13.9188 98° East  Level FlightAware Approximate
Wed 11:45:00 PM 50.6263 -13.7123 98° East  Level FlightAware Approximate
Wed 11:46:00 PM 50.6077 -13.5061 98° East  Level FlightAware Approximate
Wed 11:47:00 PM 50.5888 -13.2999 98° East  Level FlightAware Approximate
Wed 11:48:00 PM 50.5696 -13.0939 98° East  Level FlightAware Approximate
Wed 11:49:00 PM 50.5500 -12.8881 98° East  Level FlightAware Approximate
Wed 11:50:00 PM 50.5302 -12.6825 98° East  Level FlightAware Approximate
Wed 11:51:00 PM 50.5111 -12.4767 98° East  Level FlightAware Approximate
Wed 11:52:00 PM 50.4916 -12.2711 98° East  Level FlightAware Approximate
Wed 11:53:00 PM 50.4717 -12.0657 99° East  Level FlightAware Approximate
Wed 11:54:00 PM 50.4515 -11.8605 99° East  Level FlightAware Approximate
Wed 11:55:00 PM 50.4309 -11.6554 99° East  Level FlightAware Approximate
Wed 11:56:00 PM 50.4100 -11.4505 99° East  Level FlightAware Approximate
Wed 11:57:00 PM 50.3887 -11.2458 99° East  Level FlightAware Approximate
Wed 11:58:00 PM 50.3671 -11.0413 99° East  Level FlightAware Approximate
Wed 11:58:02 PM 50.4880 -9.9830 99° East 517 595 37,000  Level FlightAware ADS-B
Wed 11:58:37 PM 50.4730 -9.8590 101° East 517 595 37,000  Level FlightAware ADS-B
Wed 11:59:27 PM 50.4490 -9.6740 101° East 517 595 37,000  Level FlightAware ADS-B
Thu 12:00:12 AM 50.4280 -9.5020 101° East 517 595 37,000  Level FlightAware ADS-B
Thu 12:01:07 AM 50.4010 -9.3000 102° East 519 597 37,000 -714 Level FlightAware ADS-B
Thu 12:02:18 AM 50.3833 -8.9785 102° East 484 557 35,500 -1,011 Descending FlightAware UK
Thu 12:02:36 AM 50.3745 -8.9123 102° East 484 557 35,500 2,647 Level FlightAware UK
Thu 12:02:52 AM 50.3510 -8.9160 102° East 518 596 37,000  Climbing FlightAware ADS-B
Thu 12:02:54 AM 50.3657 -8.8461 102° East 484 557 35,500 -4,500 Descending FlightAware UK
Thu 12:03:12 AM 50.3570 -8.7799 102° East 484 557 35,500  Level FlightAware UK
Thu 12:03:30 AM 50.3481 -8.7138 102° East 482 555 35,500  Level FlightAware UK
Thu 12:03:48 AM 50.3391 -8.6477 102° East 482 555 35,500  Level FlightAware UK
Thu 12:04:06 AM 50.3301 -8.5816 102° East 482 555 35,500 4,737 Level FlightAware UK
Thu 12:04:07 AM 50.3130 -8.6380 102° East 520 598 37,000  Climbing FlightAware ADS-B
Thu 12:04:24 AM 50.3210 -8.5154 102° East 482 555 35,500 -2,571 Descending FlightAware UK
Thu 12:04:42 AM 50.3118 -8.4492 102° East 482 555 35,500  Level FlightAware UK
Thu 12:05:00 AM 50.3027 -8.3829 102° East 482 555 35,500 2,571 Level FlightAware UK
Thu 12:05:17 AM 50.2770 -8.3810 102° East 524 603 37,000  Climbing FlightAware ADS-B
Thu 12:05:36 AM 50.2845 -8.2501 102° East 482 555 35,500 -2,432 Descending FlightAware UK
Thu 12:05:54 AM 50.2754 -8.1836 102° East 482 555 35,500  Level FlightAware UK
Thu 12:06:12 AM 50.2665 -8.1169 102° East 480 552 35,500  Level FlightAware UK
Thu 12:06:30 AM 50.2578 -8.0493 101° East 480 552 35,500 3,600 Level FlightAware UK
Thu 12:06:37 AM 50.2370 -8.0860 101° East 526 605 37,000  Climbing FlightAware ADS-B
Thu 12:06:54 AM 50.2464 -7.9598 101° East 482 555 35,500 -2,571 Descending FlightAware UK
Thu 12:07:12 AM 50.2379 -7.8924 101° East 484 557 35,500  Level FlightAware UK
Thu 12:07:30 AM 50.2291 -7.8245 101° East 486 559 35,500 3,600 Level FlightAware UK
Thu 12:07:37 AM 50.2080 -7.8610 101° East 526 605 37,000  Climbing FlightAware ADS-B
Thu 12:07:54 AM 50.2175 -7.7357 101° East 486 559 35,500 -2,571 Descending FlightAware UK
Thu 12:08:12 AM 50.2085 -7.6678 102° East 486 559 35,500  Level FlightAware UK
Thu 12:08:30 AM 50.1996 -7.6015 102° East 486 559 35,500  Level FlightAware UK
Thu 12:08:48 AM 50.1903 -7.5338 102° East 484 557 35,500 3,333 Level FlightAware UK
Thu 12:08:57 AM 50.1680 -7.5700 102° East 529 609 37,000  Climbing FlightAware ADS-B
Thu 12:09:12 AM 50.1779 -7.4446 102° East 486 559 35,500 -2,727 Descending FlightAware UK
Thu 12:09:30 AM 50.1686 -7.3778 102° East 484 557 35,500  Level FlightAware UK
Thu 12:09:48 AM 50.1593 -7.3108 102° East 486 559 35,500  Level FlightAware UK
Thu 12:10:06 AM 50.1500 -7.2439 102° East 486 559 35,500 4,737 Level FlightAware UK
Thu 12:10:07 AM 50.1310 -7.3060 102° East 529 609 37,000  Climbing FlightAware ADS-B
Thu 12:10:24 AM 50.1409 -7.1769 102° East 486 559 35,500 -2,571 Descending FlightAware UK
Thu 12:10:42 AM 50.1317 -7.1100 102° East 484 557 35,500  Level FlightAware UK
Thu 12:11:00 AM 50.1223 -7.0431 102° East 484 557 35,500 2,571 Level FlightAware UK
Thu 12:11:17 AM 50.0940 -7.0430 102° East 529 609 37,000  Climbing FlightAware ADS-B
Thu 12:11:18 AM 50.1129 -6.9762 102° East 488 562 35,500 -4,737 Descending FlightAware UK
Thu 12:11:36 AM 50.1034 -6.9085 102° East 490 564 35,500  Level FlightAware UK
Thu 12:11:54 AM 50.0938 -6.8416 103° East 488 562 35,500 3,462 Level FlightAware UK
Thu 12:12:02 AM 50.0690 -6.8750 103° East 529 609 37,000  Climbing FlightAware ADS-B
Thu 12:12:18 AM 50.0811 -6.7533 103° East 488 562 35,500 -2,647 Descending FlightAware UK
Thu 12:12:36 AM 50.0715 -6.6858 102° East 488 562 35,500 3,750 Level FlightAware UK
Thu 12:12:42 AM 50.0480 -6.7290 102° East 529 609 37,000  Climbing FlightAware ADS-B
Thu 12:13:00 AM 50.0589 -6.5971 102° East 488 562 35,500 -2,500 Descending FlightAware UK
Thu 12:13:18 AM 50.0494 -6.5306 103° East 488 562 35,500 3,333 Level FlightAware UK
Thu 12:13:27 AM 50.0230 -6.5600 103° East 527 606 37,000  Climbing FlightAware ADS-B
Thu 12:13:42 AM 50.0366 -6.4420 103° East 488 562 35,500 -2,727 Descending FlightAware UK
Thu 12:14:00 AM 50.0268 -6.3756 103° East 486 559 35,500 3,600 Level FlightAware UK
Thu 12:14:07 AM 50.0020 -6.4150 103° East 525 604 37,000  Climbing FlightAware ADS-B
Thu 12:14:24 AM 50.0137 -6.2865 103° East 486 559 35,500 -2,571 Descending FlightAware UK
Thu 12:14:42 AM 50.0039 -6.2202 103° East 488 562 35,500 3,913 Level FlightAware UK
Thu 12:14:47 AM 49.9790 -6.2660 103° East 525 604 37,000  Climbing FlightAware ADS-B
Thu 12:15:06 AM 49.9910 -6.1318 103° East 486 559 35,500 -2,432 Descending FlightAware UK
Thu 12:15:24 AM 49.9811 -6.0655 103° East 484 557 35,500 3,462 Level FlightAware UK
Thu 12:15:32 AM 49.9540 -6.1020 103° East 526 605 37,000  Climbing FlightAware ADS-B
Thu 12:15:48 AM 49.9678 -5.9772 103° East 482 555 35,500 -2,647 Descending FlightAware UK
Thu 12:16:06 AM 49.9578 -5.9109 103° East 484 557 35,500 3,750 Level FlightAware UK
Thu 12:16:12 AM 49.9310 -5.9520 103° East 526 605 37,000  Climbing FlightAware ADS-B
Thu 12:16:30 AM 49.9443 -5.8224 103° East 486 559 35,500 -2,500 Descending FlightAware UK
Thu 12:16:48 AM 49.9343 -5.7560 103° East 484 557 35,500 4,091 Level FlightAware UK
Thu 12:16:52 AM 49.9090 -5.8080 103° East 527 606 37,000  Climbing FlightAware ADS-B
Thu 12:17:12 AM 49.9209 -5.6674 103° East 484 557 35,500 -2,368 Descending FlightAware UK
Thu 12:17:30 AM 49.9109 -5.6008 103° East 484 557 35,500 3,600 Level FlightAware UK
Thu 12:17:37 AM 49.8830 -5.6420 103° East 528 608 37,000  Climbing FlightAware ADS-B
Thu 12:17:55 AM 49.8970 -5.5115 103° East 482 555 35,500 -2,500 Descending FlightAware UK
Thu 12:18:13 AM 49.8865 -5.4450 104° East 484 557 35,500 4,091 Level FlightAware UK
Thu 12:18:17 AM 49.8600 -5.4930 104° East 531 611 37,000  Climbing FlightAware ADS-B
Thu 12:18:37 AM 49.8726 -5.3562 104° East 486 559 35,500 -2,368 Descending FlightAware UK
Thu 12:18:55 AM 49.8620 -5.2896 104° East 486 559 35,500 3,600 Level FlightAware UK
Thu 12:19:02 AM 49.8330 -5.3280 104° East 532 612 37,000  Climbing FlightAware ADS-B
Thu 12:19:19 AM 49.8480 -5.2008 104° East 482 555 35,500 -2,571 Descending FlightAware UK
Thu 12:19:37 AM 49.8377 -5.1341 104° East 484 557 35,500 3,913 Level FlightAware UK
Thu 12:19:42 AM 49.8090 -5.1800 104° East 533 613 37,000  Climbing FlightAware ADS-B
Thu 12:20:01 AM 49.8234 -5.0445 104° East 486 559 35,500 -2,432 Descending FlightAware UK
Thu 12:20:19 AM 49.8128 -4.9779 104° East 486 559 35,500 4,286 Level FlightAware UK
Thu 12:20:22 AM 49.7860 -5.0330 104° East 533 613 37,000  Climbing FlightAware ADS-B
Thu 12:20:37 AM 49.8020 -4.9114 104° East 482 555 35,500 -2,727 Descending FlightAware UK
Thu 12:20:55 AM 49.7912 -4.8449 104° East 484 557 35,500 3,000 Level FlightAware UK
Thu 12:21:07 AM 49.7590 -4.8690 104° East 532 612 37,000  Climbing FlightAware ADS-B
Thu 12:21:25 AM 49.7733 -4.7341 104° East 488 562 35,500  Descending FlightAware UK
Thu 12:21:42 AM 49.7370 -4.7380 104° East 532 612 37,000  Climbing FlightAware ADS-B
Thu 12:21:43 AM 49.7625 -4.6677 104° East 490 564 35,500 -4,737 Descending FlightAware UK
Thu 12:22:01 AM 49.7519 -4.6013 104° East 490 564 35,500  Level FlightAware UK
Thu 12:22:19 AM 49.7409 -4.5344 104° East 488 562 35,500 4,286 Level FlightAware UK
Thu 12:22:22 AM 49.7130 -4.5940 104° East 530 610 37,000  Climbing FlightAware ADS-B
Thu 12:22:37 AM 49.7300 -4.4683 104° East 488 562 35,500 -2,727 Descending FlightAware UK
Thu 12:22:55 AM 49.7191 -4.4022 104° East 482 555 35,500 3,600 Level FlightAware UK
Thu 12:23:02 AM 49.6880 -4.4460 104° East 531 611 37,000  Climbing FlightAware ADS-B
Thu 12:23:19 AM 49.7045 -4.3149 104° East 482 555 35,500 -2,571 Descending FlightAware UK
Thu 12:23:37 AM 49.6933 -4.2480 104° East 484 557 35,500 3,214 Level FlightAware UK
Thu 12:23:47 AM 49.6610 -4.2820 104° East 531 611 37,000  Climbing FlightAware ADS-B
Thu 12:24:07 AM 49.6750 -4.1377 104° East 486 559 35,500 -2,368 Descending FlightAware UK
Thu 12:24:25 AM 49.6640 -4.0717 104° East 486 559 35,500 4,500 Level FlightAware UK
Thu 12:24:27 AM 49.6360 -4.1350 104° East 531 611 37,000  Climbing FlightAware ADS-B
Thu 12:24:43 AM 49.6536 -4.0046 104° East 486 559 35,500 -2,647 Descending FlightAware UK
Thu 12:25:01 AM 49.6480 -3.9359 97° East 486 559 35,500 3,750 Level FlightAware UK
Thu 12:25:07 AM 49.6180 -3.9950 97° East 535 616 37,000  Climbing FlightAware ADS-B
Thu 12:25:25 AM 49.6417 -3.8450 97° East 484 557 35,500 -2,500 Descending FlightAware UK
Thu 12:25:43 AM 49.6372 -3.7763 96° East 484 557 35,500 3,333 Level FlightAware UK
Thu 12:25:52 AM 49.6050 -3.8060 96° East 536 617 37,000  Climbing FlightAware ADS-B
Thu 12:26:07 AM 49.6315 -3.6849 96° East 484 557 35,500 -2,727 Descending FlightAware UK
Thu 12:26:25 AM 49.6275 -3.6156 95° East 482 555 35,500 3,000 Level FlightAware UK
Thu 12:26:37 AM 49.5940 -3.6300 95° East 535 616 37,000  Climbing FlightAware ADS-B
Thu 12:26:55 AM 49.6205 -3.5016 95° East 482 555 35,500 -2,500 Descending FlightAware UK
Thu 12:27:13 AM 49.6162 -3.4338 96° East 480 552 35,500 4,091 Level FlightAware UK
Thu 12:27:17 AM 49.5840 -3.4770 96° East 536 617 37,000  Climbing FlightAware ADS-B
Thu 12:27:37 AM 49.6103 -3.3418 96° East 480 552 35,500 -2,368 Descending FlightAware UK
Thu 12:27:55 AM 49.6058 -3.2732 96° East 480 552 35,500 4,500 Level FlightAware UK
Thu 12:27:57 AM 49.5740 -3.3250 96° East 537 618 37,000  Climbing FlightAware ADS-B
Thu 12:28:13 AM 49.6012 -3.2047 96° East 482 555 35,500 -2,571 Descending FlightAware UK
Thu 12:28:32 AM 49.5965 -3.1353 96° East 480 552 35,500 3,103 Level FlightAware UK
Thu 12:28:42 AM 49.5630 -3.1570 96° East 538 619 37,000  Climbing FlightAware ADS-B
Thu 12:29:02 AM 49.5888 -3.0209 96° East 482 555 35,500 -2,432 Descending FlightAware UK
Thu 12:29:19 AM 49.5840 -2.9530 96° East 482 555 35,500 4,500 Level FlightAware UK
Thu 12:29:22 AM 49.5520 -3.0050 96° East 540 621 37,000  Climbing FlightAware ADS-B
Thu 12:29:38 AM 49.5790 -2.8835 96° East 484 557 35,500 -2,647 Descending FlightAware UK
Thu 12:29:56 AM 49.5741 -2.8146 96° East 484 557 35,500 3,750 Level FlightAware UK
Thu 12:30:02 AM 49.5410 -2.8550 96° East 539 620 37,000 4,286 Climbing FlightAware ADS-B
Thu 12:30:17 AM 49.5367 -2.7900 96° East 539 620 37,000 -2,500 Level FlightAware ADS-B
Thu 12:30:38 AM 49.5626 -2.6542 96° East 482 555 35,500  Descending FlightAware UK
Thu 12:30:47 AM 49.5290 -2.6790 96° East 540 621 37,000 4,500 Climbing FlightAware ADS-B
Thu 12:30:58 AM 49.5253 -2.6340 97° East 539 620 37,000 -3,333 Level FlightAware ADS-B
Thu 12:31:14 AM 49.5526 -2.5145 97° East 480 552 35,500 -2,647 Descending FlightAware UK
Thu 12:31:32 AM 49.5475 -2.4457 96° East 480 552 35,500  Level FlightAware UK
Thu 12:31:50 AM 49.5424 -2.3776 97° East 480 552 35,500 2,903 Level FlightAware UK
Thu 12:32:03 AM 49.5068 -2.3845 97° East 542 624 37,000 3,913 Climbing FlightAware ADS-B
Thu 12:32:13 AM 49.5041 -2.3473 96° East 542 624 37,000 -3,103 Level FlightAware ADS-B
Thu 12:32:32 AM 49.5301 -2.2162 96° East 480 552 35,500  Descending FlightAware UK
Thu 12:32:36 AM 49.4974 -2.2586 96° East 542 624 37,000 8,182 Climbing FlightAware ADS-B
Thu 12:32:43 AM 49.4953 -2.2311 97° East 543 625 37,000 -3,462 Level FlightAware ADS-B
Thu 12:33:02 AM 49.5215 -2.1021 97° East 480 552 35,500  Descending FlightAware UK
Thu 12:33:10 AM 49.4877 -2.1315 97° East 544 626 37,000 4,500 Climbing FlightAware ADS-B
Thu 12:33:22 AM 49.4838 -2.0818 97° East 545 627 37,000 -3,214 Level FlightAware ADS-B
Thu 12:33:38 AM 49.5111 -1.9638 97° East 482 555 35,500  Descending FlightAware UK
Thu 12:33:52 AM 49.4749 -1.9674 97° East 545 627 37,000 4,737 Climbing FlightAware ADS-B
Thu 12:33:57 AM 49.4733 -1.9483 97° East 545 627 37,000 -4,091 Level FlightAware ADS-B
Thu 12:34:14 AM 49.4999 -1.8237 97° East 484 557 35,500  Descending FlightAware UK
Thu 12:34:28 AM 49.4641 -1.8302 97° East 545 627 37,000  Climbing FlightAware ADS-B
Thu 12:34:45 AM 49.4907 -1.7074 97° East 488 562 35,500  Descending FlightAware UK
Thu 12:34:50 AM 49.4574 -1.7446 97° East 544 626 37,000 5,000 Climbing FlightAware ADS-B
Thu 12:35:03 AM 49.4536 -1.6979 97° East 544 626 37,000  Level FlightAware ADS-B
Thu 12:35:21 AM 49.4479 -1.6268 97° East 543 625 37,000  Level FlightAware ADS-B
Thu 12:35:33 AM 49.4442 -1.5819 97° East 542 624 37,000 -3,310 Level FlightAware ADS-B
Thu 12:35:50 AM 49.4706 -1.4559 97° East 484 557 35,400  Descending FlightAware UK
Thu 12:35:54 AM 49.4405 -1.5355 97° East 541 623 37,000 6,429 Climbing FlightAware ADS-B
Thu 12:36:04 AM 49.4347 -1.4648 97° East 542 624 36,900 -4,154 Descending FlightAware ADS-B
Thu 12:36:20 AM 49.4608 -1.3406 97° East 484 557 35,200 -3,353 Descending FlightAware UK
Thu 12:36:38 AM 49.4550 -1.2718 97° East 486 559 35,000 3,130 Descending FlightAware UK
Thu 12:36:43 AM 49.4225 -1.3156 97° East 545 627 36,400 -1,200 Climbing FlightAware ADS-B
Thu 12:37:03 AM 49.4473 -1.1788 97° East 488 562 34,500 -1,304 Descending FlightAware UK
Thu 12:37:06 AM 49.4150 -1.2287 97° East 547 629 35,900 6,000 Climbing FlightAware ADS-B
Thu 12:37:15 AM 49.4120 -1.1932 97° East 550 633 35,700 -4,889 Descending FlightAware ADS-B
Thu 12:37:33 AM 49.4373 -1.0628 97° East 484 557 33,700 -1,500 Descending FlightAware UK
Thu 12:37:39 AM 49.4043 -1.1000 97° East 553 636 35,100 2,727 Climbing FlightAware ADS-B
Thu 12:37:55 AM 49.3988 -1.0355 97° East 553 636 34,700 -4,333 Descending FlightAware ADS-B
Thu 12:38:15 AM 49.4231 -0.8980 97° East 474 545 32,500 -1,364 Descending FlightAware UK
Thu 12:38:17 AM 49.3938 -0.9787 97° East 556 640 34,200 -2,333 Climbing FlightAware ADS-B
Thu 12:38:33 AM 49.4168 -0.8266 97° East 470 541 31,800 -5,455 Descending FlightAware UK
Thu 12:38:50 AM 49.4106 -0.7574 98° East 472 543 31,200 1,680 Descending FlightAware UK
Thu 12:38:58 AM 49.3777 -0.7909 98° East 565 650 32,500 -2,400 Climbing FlightAware ADS-B
Thu 12:39:15 AM 49.4022 -0.6613 98° East 472 543 30,200 -2,571 Descending FlightAware UK
Thu 12:39:33 AM 49.3657 -0.6489 98° East 569 655 31,000 -2,333 Climbing FlightAware ADS-B
Thu 12:39:51 AM 49.3895 -0.5163 98° East 468 539 28,800 -2,364 Descending FlightAware UK
Thu 12:40:06 AM 49.3538 -0.5187 98° East 559 643 29,700 -3,000 Climbing FlightAware ADS-B
Thu 12:40:21 AM 49.3783 -0.3981 98° East 464 534 27,300 -5,455 Descending FlightAware UK
Thu 12:40:39 AM 49.3716 -0.3266 98° East 462 532 26,700 3,429 Descending FlightAware UK
Thu 12:40:42 AM 49.3446 -0.4168 98° East 557 641 28,500 -667 Climbing FlightAware ADS-B
Thu 12:40:57 AM 49.3649 -0.2565 98° East 458 527 26,500 -923 Descending FlightAware UK
Thu 12:41:08 AM 49.3328 -0.2869 98° East 546 628 28,100  Climbing FlightAware ADS-B
Thu 12:41:27 AM 49.3543 -0.1425 98° East 450 518 26,500 -200 Descending FlightAware UK
Thu 12:41:38 AM 49.3217 -0.1649 98° East 536 617 28,000  Climbing FlightAware ADS-B
Thu 12:41:57 AM 49.3438 -0.0298 98° East 442 509 26,500  Descending FlightAware UK
Thu 12:42:11 AM 49.3101 -0.0395 98° East 539 620 28,000  Climbing FlightAware ADS-B
Thu 12:42:27 AM 49.3329 0.0842 98° East 452 520 26,500  Descending FlightAware UK
Thu 12:42:42 AM 49.2991 0.0783 98° East 544 626 28,000  Climbing FlightAware ADS-B
Thu 12:42:57 AM 49.3216 0.1995 98° East 454 522 26,500 -2,727 Descending FlightAware UK
Thu 12:43:15 AM 49.3151 0.2676 98° East 454 522 26,500 4,500 Level FlightAware UK
Thu 12:43:17 AM 49.2879 0.2106 98° East 546 628 28,000  Climbing FlightAware ADS-B
Thu 12:43:33 AM 49.3128 0.3378 98° East 454 522 26,500 -2,647 Descending FlightAware UK
Thu 12:43:51 AM 49.3110 0.4080 92° East 452 520 26,500 3,111 Level FlightAware UK
Thu 12:44:00 AM 49.2842 0.3790 92° East 548 631 27,900 -1,250 Climbing FlightAware ADS-B
Thu 12:44:15 AM 49.3106 0.5020 92° East 450 518 26,000 -1,742 Descending FlightAware UK
Thu 12:44:31 AM 49.2838 0.4949 92° East 537 618 27,000 -1,833 Climbing FlightAware ADS-B
Thu 12:44:51 AM 49.3103 0.6375 92° East 444 511 24,900 -2,200 Descending FlightAware UK
Thu 12:45:01 AM 49.2840 0.6079 92° East 514 592 25,900 -3,000 Climbing FlightAware ADS-B
Thu 12:45:21 AM 49.3100 0.7457 92° East 438 504 23,400 -5,231 Descending FlightAware UK
Thu 12:45:40 AM 49.3095 0.8077 91° East 424 488 22,500 818 Descending FlightAware UK
Thu 12:45:43 AM 49.2836 0.7552 91° East 474 545 23,700 -4,750 Climbing FlightAware ADS-B
Thu 12:46:04 AM 49.3087 0.8876 91° East 420 483 20,600 -3,097 Descending FlightAware UK
Thu 12:46:14 AM 49.2831 0.8260 91° East 465 535 22,100 -4,200 Climbing FlightAware ADS-B
Thu 12:46:34 AM 49.3075 0.9856 91° East 412 474 18,500 -7,737 Descending FlightAware UK
Thu 12:46:52 AM 49.3069 1.0415 91° East 404 465 17,200 286 Descending FlightAware UK
Thu 12:46:55 AM 49.2819 0.9872 91° East 441 507 18,600 -3,667 Climbing FlightAware ADS-B
Thu 12:47:10 AM 49.3063 1.0979 91° East 402 463 16,100 -3,097 Descending FlightAware UK
Thu 12:47:26 AM 49.2814 1.0838 91° East 433 498 17,000 -2,333 Climbing FlightAware ADS-B
Thu 12:47:46 AM 49.3049 1.2079 91° East 384 442 14,700 -2,710 Descending FlightAware UK
Thu 12:47:57 AM 49.2807 1.1735 91° East 401 461 15,600 -3,600 Climbing FlightAware ADS-B
Thu 12:48:16 AM 49.3038 1.2916 91° East 368 423 12,900 -3,400 Descending FlightAware UK
Thu 12:48:27 AM 49.2800 1.2571 91° East 385 443 13,900 -2,897 Climbing FlightAware ADS-B
Thu 12:48:45 AM 49.3028 1.3716 91° East 346 398 11,500 -2,100 Descending FlightAware UK
Thu 12:48:47 AM 49.2797 1.2986 91° East 370 426 13,200 -2,526 Climbing FlightAware ADS-B
Thu 12:49:04 AM 49.3020 1.4178 91° East 334 384 10,700 -3,667 Descending FlightAware UK
Thu 12:49:05 AM 49.2794 1.3572 91° East 358 412 12,100 -3,000 Climbing FlightAware ADS-B
Thu 12:49:22 AM 49.3014 1.4629 91° East 326 375 9,800 -1,742 Descending FlightAware UK
Thu 12:49:36 AM 49.2787 1.4318 91° East 332 382 11,200 -400 Climbing FlightAware ADS-B
Thu 12:49:52 AM 49.3006 1.5339 91° East 296 341 9,600 -414 Descending FlightAware UK
Thu 12:50:05 AM 49.2783 1.4974 91° East 319 367 11,000 -200 Climbing FlightAware ADS-B
Thu 12:50:22 AM 49.2994 1.6012 91° East 292 336 9,500  Descending FlightAware UK
Thu 12:50:28 AM 49.2769 1.5499 91° East 316 364 11,000  Climbing FlightAware ADS-B
Thu 12:50:46 AM 49.2969 1.6542 91° East 292 336 9,500  Descending FlightAware UK
Thu 12:50:59 AM 49.2739 1.6186 91° East 317 365 11,000  Climbing FlightAware ADS-B
Thu 12:51:16 AM 49.2930 1.7214 91° East 294 338 9,500  Descending FlightAware UK
Thu 12:51:30 AM 49.2709 1.6888 91° East 321 369 11,000  Climbing FlightAware ADS-B
Thu 12:51:46 AM 49.2894 1.7894 91° East 302 348 9,500  Descending FlightAware UK
Thu 12:52:00 AM 49.2684 1.7583 91° East 329 379 11,000  Climbing FlightAware ADS-B
Thu 12:52:16 AM 49.2865 1.8595 91° East 306 352 9,500  Descending FlightAware UK
Thu 12:52:31 AM 49.2659 1.8291 91° East 328 377 11,000  Climbing FlightAware ADS-B
Thu 12:52:46 AM 49.2841 1.9291 91° East 304 350 9,500  Descending FlightAware UK
Thu 12:53:03 AM 49.2630 1.9029 91° East 330 380 11,000 1,915 Climbing FlightAware ADS-B
Thu 12:53:33 AM 49.2603 1.9734 93° East 329 379 11,000  Level FlightAware ADS-B
Thu 12:54:04 AM 49.2574 2.0448 94° East 329 379 11,000 -1,837 Level FlightAware ADS-B
Thu 12:54:22 AM 49.2748 2.1529 94° East 304 350 9,500  Descending FlightAware UK
Thu 12:54:27 AM 49.2560 2.0792 94° East 328 377 11,000  Climbing FlightAware ADS-B
Thu 12:54:46 AM 49.2717 2.2074 94° East 304 350 9,500  Descending FlightAware UK
Thu 12:54:59 AM 49.2522 2.1714 94° East 325 374 11,000  Climbing FlightAware ADS-B
Thu 12:55:16 AM 49.2700 2.2795 94° East 302 348 9,500  Descending FlightAware UK
Thu 12:55:30 AM 49.2495 2.2393 94° East 297 342 11,000 2,045 Climbing FlightAware ADS-B
Thu 12:56:00 AM 49.2467 2.3045 94° East 306 352 11,000 -98 Level FlightAware ADS-B
Thu 12:56:31 AM 49.2438 2.3704 94° East 304 350 10,900 -360 Descending FlightAware ADS-B
Thu 12:56:50 AM 49.2424 2.4010 94° East 301 346 10,700 -1,227 Descending FlightAware ADS-B
Thu 12:57:15 AM 49.2390 2.4646 95° East 300 345 10,000 -1,404 Descending FlightAware ADS-B
Thu 12:57:37 AM 49.2368 2.5104 94° East 299 344 9,600 -1,263 Descending FlightAware ADS-B
Thu 12:57:53 AM 49.2354 2.5440 94° East 297 342 9,200 -1,313 Descending FlightAware ADS-B
Thu 12:58:09 AM 49.2339 2.5773 94° East 296 341 8,900 -1,125 Descending FlightAware ADS-B
Thu 12:58:25 AM 49.2323 2.6094 94° East 295 339 8,600 -1,355 Descending FlightAware ADS-B
Thu 12:58:40 AM 49.2308 2.6417 94° East 294 338 8,200 -1,400 Descending FlightAware ADS-B
Thu 12:58:55 AM 49.2294 2.6732 94° East 293 337 7,900 -1,200 Descending FlightAware ADS-B
Thu 12:59:10 AM 49.2279 2.7042 94° East 293 337 7,600 -1,125 Descending FlightAware ADS-B
Thu 12:59:43 AM 49.2247 2.7712 94° East 292 336 7,000 -692 Descending FlightAware ADS-B
Thu 01:00:02 AM 49.2231 2.8082 94° East 287 330 7,000  Level FlightAware ADS-B
Thu 01:00:17 AM 49.2217 2.8400 94° East 290 334 7,000  Level FlightAware ADS-B
Thu 01:00:40 AM 49.2380 2.9169 72° East 288 331 7,000  Level FlightAware ADS-B
Thu 01:00:53 AM 49.2366 2.9431 95° East 287 330 7,000  Level FlightAware ADS-B
Thu 01:01:08 AM 49.2349 2.9733 95° East 286 329 7,000  Level FlightAware ADS-B
Thu 01:01:23 AM 49.2332 3.0048 95° East 284 327 7,000  Level FlightAware ADS-B
Thu 01:01:38 AM 49.2323 3.0186 96° East 284 327 7,000  Level FlightAware ADS-B
Thu 01:01:44 AM 49.2308 3.0472 95° East 285 328 7,000  Level FlightAware ADS-B
Thu 01:01:49 AM 49.2299 3.0554 100° East 282 325 7,000  Level FlightAware ADS-B
Thu 01:01:52 AM 49.2289 3.0619 103° East 279 321 7,000  Level FlightAware ADS-B
Thu 01:01:56 AM 49.2268 3.0692 114° Southeast 274 315 7,000  Level FlightAware ADS-B
Thu 01:02:00 AM 49.2246 3.0755 118° Southeast 270 311 7,000 -750 Level FlightAware ADS-B
Thu 01:02:04 AM 49.2217 3.0813 127° Southeast 264 304 6,900 -857 Descending FlightAware ADS-B
Thu 01:02:07 AM 49.2189 3.0858 133° Southeast 261 300 6,900 -857 Level FlightAware ADS-B
Thu 01:02:11 AM 49.2153 3.0906 139° Southeast 257 296 6,800 -1,500 Descending FlightAware ADS-B
Thu 01:02:15 AM 49.2119 3.0943 144° Southeast 255 293 6,700 -1,200 Descending FlightAware ADS-B
Thu 01:02:31 AM 49.1959 3.1117 145° Southeast 252 290 6,400 -938 Descending FlightAware ADS-B
Thu 01:02:47 AM 49.1814 3.1275 145° Southeast 238 274 6,200 -968 Descending FlightAware ADS-B
Thu 01:03:02 AM 49.1681 3.1421 144° Southeast 225 259 5,900 -1,355 Descending FlightAware ADS-B
Thu 01:03:18 AM 49.1554 3.1560 144° Southeast 220 253 5,500 -1,846 Descending FlightAware ADS-B
Thu 01:03:28 AM 49.1468 3.1654 144° Southeast 221 254 5,100 -1,714 Descending FlightAware ADS-B
Thu 01:03:46 AM 49.1317 3.1828 143° Southeast 224 258 4,700 -1,304 Descending FlightAware ADS-B
Thu 01:03:51 AM 49.1281 3.1860 149° Southeast 222 255 4,600 -800 Descending FlightAware ADS-B
Thu 01:04:01 AM 49.1242 3.1886 156° South 219 252 4,500 -1,714 Descending FlightAware ADS-B
Thu 01:04:05 AM 49.1141 3.1905 173° South 212 244 4,200 -3,000 Descending FlightAware ADS-B
Thu 01:04:09 AM 49.1101 3.1893 191° South 209 241 4,100 -857 Descending FlightAware ADS-B
Thu 01:04:12 AM 49.1073 3.1877 200° South 208 239 4,100 -857 Level FlightAware ADS-B
Thu 01:04:16 AM 49.1044 3.1854 208° Southwest 210 242 4,000 -857 Descending FlightAware ADS-B
Thu 01:04:19 AM 49.1015 3.1821 217° Southwest 210 242 4,000  Level FlightAware ADS-B
Thu 01:04:24 AM 49.0988 3.1778 226° Southwest 212 244 4,000  Level FlightAware ADS-B
Thu 01:04:28 AM 49.0965 3.1730 234° Southwest 212 244 4,000  Level FlightAware ADS-B
Thu 01:04:36 AM 49.0921 3.1617 239° Southwest 212 244 4,000  Level FlightAware ADS-B
Thu 01:04:52 AM 49.0847 3.1416 241° Southwest 209 241 4,000  Level FlightAware ADS-B
Thu 01:05:09 AM 49.0768 3.1200 241° Southwest 211 243 4,000  Level FlightAware ADS-B
Thu 01:05:24 AM 49.0692 3.1002 240° Southwest 211 243 4,000  Level FlightAware ADS-B
Thu 01:05:40 AM 49.0615 3.0800 240° Southwest 211 243 4,000  Level FlightAware ADS-B
Thu 01:05:55 AM 49.0541 3.0609 239° Southwest 213 245 4,000  Level FlightAware ADS-B
Thu 01:06:12 AM 49.0462 3.0408 239° Southwest 213 245 4,000  Level FlightAware ADS-B
Thu 01:06:22 AM 49.0426 3.0315 239° Southwest 212 244 4,000  Level FlightAware ADS-B
Thu 01:06:37 AM 49.0332 3.0070 240° Southwest 209 241 4,000  Level FlightAware ADS-B
Thu 01:06:50 AM 49.0268 2.9898 240° Southwest 210 242 4,000  Level FlightAware ADS-B
Thu 01:06:55 AM 49.0244 2.9833 241° Southwest 212 244 4,000  Level FlightAware ADS-B
Thu 01:06:59 AM 49.0230 2.9782 247° West 212 244 4,000  Level FlightAware ADS-B
Thu 01:07:02 AM 49.0220 2.9732 253° West 213 245 4,000  Level FlightAware ADS-B
Thu 01:07:09 AM 49.0205 2.9639 256° West 212 244 4,000  Level FlightAware ADS-B
Thu 01:07:16 AM 49.0193 2.9533 260° West 213 245 4,000  Level FlightAware ADS-B
Thu 01:07:27 AM 49.0182 2.9375 264° West 213 245 4,000  Level FlightAware ADS-B
Thu 01:07:36 AM 49.0176 2.9229 266° West 215 247 4,000  Level FlightAware ADS-B
Thu 01:07:52 AM 49.0164 2.8999 265° West 218 251 4,000  Level FlightAware ADS-B
Thu 01:08:07 AM 49.0153 2.8770 266° West 217 250 4,000  Level FlightAware ADS-B
Thu 01:08:22 AM 49.0141 2.8537 266° West 215 247 4,000 -214 Level FlightAware ADS-B
Thu 01:08:35 AM 49.0131 2.8340 266° West 207 238 3,900 -828 Descending FlightAware ADS-B
Thu 01:08:51 AM 49.0117 2.8113 265° West 205 236 3,600 -1,161 Descending FlightAware ADS-B
Thu 01:09:06 AM 49.0107 2.7900 266° West 200 230 3,300 -1,200 Descending FlightAware ADS-B
Thu 01:09:21 AM 49.0095 2.7696 265° West 191 220 3,000 -1,071 Descending FlightAware ADS-B
Thu 01:09:34 AM 49.0086 2.7529 265° West 184 212 2,800 -1,034 Descending FlightAware ADS-B
Thu 01:09:50 AM 49.0076 2.7329 266° West 176 203 2,500 -1,091 Descending FlightAware ADS-B
Thu 01:10:07 AM 49.0064 2.7122 265° West 163 188 2,200 -938 Descending FlightAware ADS-B
Thu 01:10:22 AM 49.0054 2.6958 265° West 152 175 2,000 -789 Descending FlightAware ADS-B
Thu 01:10:45 AM 49.0042 2.6738 265° West 138 159 1,700 -612 Descending FlightAware ADS-B
Thu 01:11:11 AM 49.0033 2.6568 265° West 132 152 1,500 -649 Descending FlightAware ADS-B
Thu 01:11:22 AM 49.0023 2.6395 265° West 134 154 1,300 -923 Descending FlightAware ADS-B
Thu 01:11:37 AM 49.0014 2.6252 265° West 135 155 1,100 -720 Descending FlightAware ADS-B
Thu 01:11:47 AM 49.0009 2.6163 265° West 133 153 1,000 -750 Descending FlightAware ADS-B
Thu 01:12:01 AM 49.0000 2.6025 264° West 131 151 800 -889 Descending FlightAware ADS-B
Thu 01:12:14 AM 48.9993 2.5905 265° West 129 148 600 -720 Descending FlightAware ADS-B
Thu 01:12:26 AM 48.9988 2.5801 266° West 132 152 500 -500 Descending FlightAware ADS-B

Login

Don't have an account? Register now (free) for customized features, flight alerts, and more!